Time;durP1;ratioP1;P1;durP2;ratioP2;P2;SDS_P1;SDS_P2;PMS_P1;PMS_P2;Temp;Humidity;BMP_temperature;BMP_pressure;BME280_temperature;BME280_humidity;BME280_pressure;Samples;Min_cycle;Max_cycle;Signal;HPM_P1;HPM_P2
2023/04/05 00:00:58;;;;;;;0.00;0.00;;;1.70;92.50;;;;;;5090880;28;20176;-61
2023/04/05 00:03:24;;;;;;;0.00;0.00;;;1.70;92.50;;;;;;5091053;28;20180;-61
2023/04/05 00:05:50;;;;;;;0.00;0.00;;;1.70;92.60;;;;;;5090737;28;20237;-61
2023/04/05 00:08:25;;;;;;;0.00;0.00;;;1.70;92.60;;;;;;5090515;28;20176;-61
2023/04/05 00:10:51;;;;;;;0.00;0.00;;;1.70;92.60;;;;;;5075939;28;20183;-61
2023/04/05 00:13:17;;;;;;;0.00;0.00;;;1.70;92.70;;;;;;5091039;28;20180;-61
2023/04/05 00:15:43;;;;;;;0.00;0.00;;;1.70;92.70;;;;;;5090354;28;20260;-61
2023/04/05 00:18:20;;;;;;;0.00;0.00;;;1.70;92.70;;;;;;5091003;28;20208;-61
2023/04/05 00:20:50;;;;;;;0.00;0.00;;;1.80;92.80;;;;;;5090580;28;20630;-61
2023/04/05 00:23:16;;;;;;;0.00;0.00;;;1.70;92.80;;;;;;5072847;28;20638;-61
2023/04/05 00:25:43;;;;;;;0.00;0.00;;;1.80;92.80;;;;;;5090728;28;20188;-61
2023/04/05 00:28:09;;;;;;;0.00;0.00;;;1.70;93.10;;;;;;5090684;28;20216;-61
2023/04/05 00:30:35;;;;;;;0.30;0.30;;;1.70;93.40;;;;;;5090523;28;20233;-61
2023/04/05 00:33:00;;;;;;;0.15;0.15;;;1.70;93.70;;;;;;5088088;28;20171;-61
2023/04/05 00:35:27;;;;;;;0.10;0.10;;;1.70;93.80;;;;;;5090472;28;20180;-61
2023/04/05 00:37:52;;;;;;;0.00;0.00;;;1.70;94.00;;;;;;5090275;28;20298;-61
2023/04/05 00:40:18;;;;;;;0.00;0.00;;;1.70;94.10;;;;;;5090626;28;20330;-61
2023/04/05 00:42:43;;;;;;;0.00;0.00;;;1.70;94.00;;;;;;5090700;28;20174;-61
2023/04/05 00:45:09;;;;;;;0.10;0.10;;;1.60;94.00;;;;;;5089616;28;20233;-61
2023/04/05 00:47:35;;;;;;;0.05;0.03;;;1.60;94.10;;;;;;5089886;28;20180;-61
2023/04/05 00:50:02;;;;;;;0.00;0.00;;;1.60;94.20;;;;;;5090284;28;20176;-61
2023/04/05 00:52:29;;;;;;;0.90;0.20;;;1.60;94.30;;;;;;5090106;28;20183;-62
2023/04/05 00:54:55;;;;;;;0.00;0.00;;;1.70;94.40;;;;;;5090397;28;20219;-61
2023/04/05 00:57:21;;;;;;;0.22;0.22;;;1.60;94.30;;;;;;5092174;28;20172;-61
2023/04/05 00:59:47;;;;;;;0.00;0.00;;;1.70;94.30;;;;;;5094371;28;20215;-61
2023/04/05 01:02:20;;;;;;;0.00;0.00;;;1.60;94.10;;;;;;5094237;28;20191;-61
2023/04/05 01:04:50;;;;;;;0.00;0.00;;;1.70;94.10;;;;;;5094029;28;20599;-61
2023/04/05 01:07:27;;;;;;;0.00;0.00;;;1.70;94.00;;;;;;5094283;28;20260;-62
2023/04/05 01:10:00;;;;;;;0.10;0.10;;;1.60;93.80;;;;;;5093862;28;20191;-61
2023/04/05 01:12:32;;;;;;;0.00;0.00;;;1.60;93.70;;;;;;5093931;28;20183;-61
2023/04/05 01:14:58;;;;;;;0.00;0.00;;;1.60;93.70;;;;;;5079981;28;20208;-61
2023/04/05 01:17:27;;;;;;;0.00;0.00;;;1.60;93.70;;;;;;5078260;28;20214;-62
2023/04/05 01:19:59;;;;;;;0.00;0.00;;;1.60;93.80;;;;;;5093561;28;20187;-62
2023/04/05 01:22:52;;;;;;;0.00;0.00;;;1.60;94.10;;;;;;5094019;28;20608;-62
2023/04/05 01:25:35;;;;;;;0.20;0.20;;;1.60;94.20;;;;;;5086941;28;20673;-62
2023/04/05 01:28:20;;;;;;;0.35;0.35;;;1.50;94.50;;;;;;5093626;28;20228;-62
2023/04/05 01:31:11;;;;;;;0.00;0.00;;;1.50;94.80;;;;;;5093677;28;20225;-62
2023/04/05 01:33:49;;;;;;;0.00;0.00;;;1.50;95.00;;;;;;5080680;28;20225;-62
2023/04/05 01:36:19;;;;;;;0.00;0.00;;;1.50;95.20;;;;;;5074930;28;20221;-62
2023/04/05 01:38:48;;;;;;;0.00;0.00;;;1.40;95.30;;;;;;5093753;28;20223;-62
2023/04/05 01:41:14;;;;;;;0.00;0.00;;;1.40;95.30;;;;;;5073482;28;20191;-62
2023/04/05 01:43:40;;;;;;;0.00;0.00;;;1.40;95.30;;;;;;5093129;28;20246;-62
2023/04/05 01:46:06;;;;;;;0.00;0.00;;;1.40;95.40;;;;;;5092719;28;20180;-62
2023/04/05 01:48:31;;;;;;;0.00;0.00;;;1.30;95.50;;;;;;5093218;28;20256;-62
2023/04/05 01:50:57;;;;;;;0.00;0.00;;;1.30;95.80;;;;;;5093073;28;20168;-62
2023/04/05 01:53:22;;;;;;;0.08;0.08;;;1.20;95.90;;;;;;5093432;28;20176;-62
2023/04/05 01:55:48;;;;;;;0.00;0.00;;;1.20;96.00;;;;;;5093388;28;20181;-62
2023/04/05 01:58:13;;;;;;;0.00;0.00;;;1.20;96.30;;;;;;5093331;28;20208;-62
2023/04/05 02:00:39;;;;;;;0.00;0.00;;;1.20;96.50;;;;;;5092879;28;20194;-62
2023/04/05 02:03:05;;;;;;;0.00;0.00;;;1.20;96.70;;;;;;5092786;28;20575;-62
2023/04/05 02:05:30;;;;;;;0.00;0.00;;;1.10;96.80;;;;;;5074864;28;20218;-62
2023/04/05 02:07:56;;;;;;;0.00;0.00;;;1.10;97.00;;;;;;5092379;28;20677;-62
2023/04/05 02:10:22;;;;;;;0.00;0.00;;;1.00;97.00;;;;;;5092172;28;20175;-62
2023/04/05 02:12:47;;;;;;;0.00;0.00;;;1.00;97.10;;;;;;5092867;28;20180;-62
2023/04/05 02:15:13;;;;;;;0.00;0.00;;;1.00;97.20;;;;;;5092026;28;20184;-62
2023/04/05 02:17:38;;;;;;;0.00;0.00;;;0.90;97.20;;;;;;5092282;28;20246;-62
2023/04/05 02:20:09;;;;;;;0.00;0.00;;;0.90;97.40;;;;;;5092253;28;20180;-62
2023/04/05 02:22:35;;;;;;;0.00;0.00;;;0.90;97.50;;;;;;5092403;28;20187;-62
2023/04/05 02:25:02;;;;;;;0.00;0.00;;;0.90;97.60;;;;;;5092420;28;20591;-62
2023/04/05 02:27:28;;;;;;;0.00;0.00;;;0.90;97.90;;;;;;5092185;28;20231;-61
2023/04/05 02:29:54;;;;;;;0.00;0.00;;;0.80;98.00;;;;;;5080950;28;20180;-62
2023/04/05 02:32:20;;;;;;;0.20;0.20;;;0.80;98.30;;;;;;5092305;28;20533;-62
2023/04/05 02:34:46;;;;;;;0.00;0.00;;;0.80;98.50;;;;;;5092033;28;20196;-62
2023/04/05 02:37:11;;;;;;;0.00;0.00;;;0.70;98.70;;;;;;5070992;28;20214;-62
2023/04/05 02:39:37;;;;;;;0.00;0.00;;;0.70;98.70;;;;;;5081802;28;20735;-62
2023/04/05 02:42:02;;;;;;;0.00;0.00;;;0.60;98.70;;;;;;5092216;28;20267;-62
2023/04/05 02:44:28;;;;;;;0.00;0.00;;;0.60;98.80;;;;;;5092189;28;20237;-61
2023/04/05 02:46:54;;;;;;;0.00;0.00;;;0.60;98.80;;;;;;5083663;28;20184;-62
2023/04/05 02:49:20;;;;;;;0.00;0.00;;;0.60;98.80;;;;;;5073726;28;20241;-62
2023/04/05 02:51:45;;;;;;;0.00;0.00;;;0.60;98.90;;;;;;5092440;28;20176;-61
2023/04/05 02:54:11;;;;;;;0.00;0.00;;;0.60;99.00;;;;;;5092373;28;20180;-62
2023/04/05 02:56:36;;;;;;;0.00;0.00;;;0.60;99.00;;;;;;5074003;28;20541;-62
2023/04/05 02:59:02;;;;;;;0.00;0.00;;;0.60;99.00;;;;;;5092401;28;20220;-62
2023/04/05 03:01:28;;;;;;;0.00;0.00;;;0.60;99.10;;;;;;5092076;28;20173;-62
2023/04/05 03:03:54;;;;;;;0.08;0.08;;;0.60;99.10;;;;;;5092426;28;20187;-62
2023/04/05 03:06:19;;;;;;;0.10;0.10;;;0.50;99.10;;;;;;5091581;28;20225;-62
2023/04/05 03:08:47;;;;;;;0.00;0.00;;;0.50;99.30;;;;;;5092023;28;20176;-62
2023/04/05 03:11:13;;;;;;;0.00;0.00;;;0.50;99.50;;;;;;5092083;28;20639;-62
2023/04/05 03:13:40;;;;;;;0.00;0.00;;;0.50;99.60;;;;;;5092000;28;20670;-61
2023/04/05 03:16:06;;;;;;;0.00;0.00;;;0.40;99.60;;;;;;5091971;28;20171;-62
2023/04/05 03:18:31;;;;;;;0.00;0.00;;;0.40;99.80;;;;;;5092026;28;20204;-62
2023/04/05 03:20:57;;;;;;;0.00;0.00;;;0.30;99.90;;;;;;5091983;28;20203;-64
2023/04/05 03:23:27;;;;;;;0.10;0.10;;;0.30;99.90;;;;;;5091395;28;20251;-60
2023/04/05 03:25:54;;;;;;;0.30;0.30;;;0.20;99.90;;;;;;5091405;28;20210;-60
2023/04/05 03:28:22;;;;;;;0.00;0.00;;;0.10;99.90;;;;;;5091538;28;20232;-60
2023/04/05 03:30:47;;;;;;;0.25;0.25;;;0.10;99.90;;;;;;5073025;28;20663;-60
2023/04/05 03:33:13;;;;;;;0.00;0.00;;;0.00;99.90;;;;;;5091817;28;20255;-59
2023/04/05 03:35:39;;;;;;;0.00;0.00;;;0.00;99.90;;;;;;5090804;28;20180;-60
2023/04/05 03:38:04;;;;;;;0.00;0.00;;;0.00;99.90;;;;;;5090718;28;20203;-65
2023/04/05 03:40:30;;;;;;;0.00;0.00;;;0.00;99.90;;;;;;5091108;28;20179;-59
2023/04/05 03:42:55;;;;;;;0.00;0.00;;;-0.10;99.90;;;;;;5091143;28;20184;-61
2023/04/05 03:45:21;;;;;;;0.00;0.00;;;-0.10;99.90;;;;;;5090780;28;20176;-60
2023/04/05 03:47:46;;;;;;;0.00;0.00;;;-0.10;99.90;;;;;;5090329;28;20180;-63
2023/04/05 03:50:12;;;;;;;0.00;0.00;;;-0.10;99.90;;;;;;5090645;28;20267;-60
2023/04/05 03:52:37;;;;;;;0.00;0.00;;;-0.20;99.90;;;;;;5091002;28;20221;-60
2023/04/05 03:55:04;;;;;;;0.00;0.00;;;-0.20;99.90;;;;;;5090221;28;20179;-60
2023/04/05 03:57:30;;;;;;;0.00;0.00;;;-0.20;99.90;;;;;;5090876;28;20655;-60
2023/04/05 03:59:55;;;;;;;0.00;0.00;;;-0.20;99.90;;;;;;5090197;28;20237;-60
2023/04/05 04:02:21;;;;;;;0.00;0.00;;;-0.20;99.90;;;;;;5090462;28;20199;-58
2023/04/05 04:04:46;;;;;;;0.00;0.00;;;-0.20;99.90;;;;;;5090141;28;20255;-60
2023/04/05 04:07:13;;;;;;;0.00;0.00;;;-0.20;99.90;;;;;;5090837;28;20655;-60
2023/04/05 04:09:38;;;;;;;0.00;0.00;;;-0.30;99.90;;;;;;5090933;28;20195;-61
2023/04/05 04:12:04;;;;;;;0.00;0.00;;;-0.30;99.90;;;;;;5090653;28;20180;-60
2023/04/05 04:14:30;;;;;;;0.00;0.00;;;-0.40;99.90;;;;;;5090743;28;20283;-61
2023/04/05 04:16:55;;;;;;;0.00;0.00;;;-0.40;99.90;;;;;;5091071;28;20173;-61
2023/04/05 04:19:21;;;;;;;0.00;0.00;;;-0.50;99.90;;;;;;5090938;28;20219;-60
2023/04/05 04:21:50;;;;;;;0.00;0.00;;;-0.50;99.90;;;;;;5090585;28;20160;-60
2023/04/05 04:24:17;;;;;;;0.00;0.00;;;-0.50;99.90;;;;;;5090794;28;20662;-60
2023/04/05 04:26:47;;;;;;;0.00;0.00;;;-0.50;99.90;;;;;;5090694;28;20268;-61
2023/04/05 04:29:15;;;;;;;0.00;0.00;;;-0.60;99.90;;;;;;5090719;28;20639;-61
2023/04/05 04:31:44;;;;;;;0.00;0.00;;;-0.60;99.90;;;;;;5090212;28;20204;-62
2023/04/05 04:34:10;;;;;;;0.00;0.00;;;-0.60;99.90;;;;;;5072734;28;20232;-61
2023/04/05 04:36:38;;;;;;;0.00;0.00;;;-0.70;99.90;;;;;;5083050;28;20168;-62
2023/04/05 04:39:06;;;;;;;0.10;0.10;;;-0.70;99.90;;;;;;5070186;28;20224;-61
2023/04/05 04:41:37;;;;;;;0.00;0.00;;;-0.70;99.90;;;;;;5070441;28;20180;-61
2023/04/05 04:44:03;;;;;;;0.00;0.00;;;-0.70;99.90;;;;;;5052582;28;20181;-62
2023/04/05 04:46:33;;;;;;;0.00;0.00;;;-0.70;99.90;;;;;;5087038;28;20245;-62
2023/04/05 04:49:04;;;;;;;0.00;0.00;;;-0.70;99.90;;;;;;5090781;28;20225;-62
2023/04/05 04:51:33;;;;;;;0.00;0.00;;;-0.70;99.90;;;;;;5090663;28;20263;-62
2023/04/05 04:53:58;;;;;;;0.00;0.00;;;-0.70;99.90;;;;;;5090812;28;20604;-62
2023/04/05 04:56:24;;;;;;;0.00;0.00;;;-0.70;99.90;;;;;;5090866;28;20177;-61
2023/04/05 04:58:53;;;;;;;0.00;0.00;;;-0.70;99.90;;;;;;5090685;28;20697;-62
2023/04/05 05:01:21;;;;;;;0.00;0.00;;;-0.70;99.90;;;;;;5090871;28;20173;-61
2023/04/05 05:03:47;;;;;;;0.00;0.00;;;-0.70;99.90;;;;;;5090469;28;21098;-61
2023/04/05 05:06:20;;;;;;;0.00;0.00;;;-0.70;99.90;;;;;;5090870;28;20196;-61
2023/04/05 05:08:46;;;;;;;0.00;0.00;;;-0.70;99.90;;;;;;5090964;28;20574;-61
2023/04/05 05:11:12;;;;;;;0.00;0.00;;;-0.70;99.90;;;;;;5090671;28;20184;-62
2023/04/05 05:13:37;;;;;;;0.00;0.00;;;-0.70;99.90;;;;;;5089962;28;20538;-61
2023/04/05 05:16:04;;;;;;;0.00;0.00;;;-0.70;99.90;;;;;;5090345;28;20226;-62
2023/04/05 05:18:30;;;;;;;0.00;0.00;;;-0.70;99.90;;;;;;5089965;28;20204;-61
2023/04/05 05:20:55;;;;;;;0.00;0.00;;;-0.60;99.90;;;;;;5090325;28;20582;-61
2023/04/05 05:23:21;;;;;;;0.00;0.00;;;-0.60;99.90;;;;;;5090138;28;20171;-62
2023/04/05 05:25:46;;;;;;;0.00;0.00;;;-0.50;99.90;;;;;;5090335;28;20207;-62
2023/04/05 05:28:12;;;;;;;0.00;0.00;;;-0.50;99.90;;;;;;5090052;28;20227;-63
2023/04/05 05:30:37;;;;;;;0.00;0.00;;;-0.40;99.90;;;;;;5089468;28;20207;-62
2023/04/05 05:33:03;;;;;;;0.00;0.00;;;-0.40;99.90;;;;;;5089367;28;20267;-62
2023/04/05 05:35:29;;;;;;;0.00;0.00;;;-0.30;99.90;;;;;;5088833;28;20183;-62
2023/04/05 05:37:54;;;;;;;0.10;0.10;;;-0.30;99.90;;;;;;5072754;28;20192;-62
2023/04/05 05:40:20;;;;;;;0.00;0.00;;;-0.30;99.90;;;;;;5068665;28;20181;-63
2023/04/05 05:42:45;;;;;;;0.00;0.00;;;-0.20;99.90;;;;;;5069254;28;20592;-62
2023/04/05 05:45:11;;;;;;;0.00;0.00;;;-0.10;99.90;;;;;;5060525;28;20181;-62
2023/04/05 05:47:37;;;;;;;0.00;0.00;;;0.00;99.90;;;;;;5075193;28;20259;-62
2023/04/05 05:50:03;;;;;;;0.00;0.00;;;0.00;99.90;;;;;;5093615;28;20264;-62
2023/04/05 05:52:28;;;;;;;0.00;0.00;;;0.10;99.90;;;;;;5093158;28;20173;-62
2023/04/05 05:54:54;;;;;;;0.00;0.00;;;0.20;99.90;;;;;;5093229;28;20187;-62
2023/04/05 05:57:20;;;;;;;0.00;0.00;;;0.30;99.90;;;;;;5093581;28;20179;-62
2023/04/05 05:59:45;;;;;;;0.20;0.20;;;0.40;99.90;;;;;;5093396;28;20243;-62
2023/04/05 06:02:11;;;;;;;0.00;0.00;;;0.60;99.90;;;;;;5093367;28;20247;-62
2023/04/05 06:04:36;;;;;;;0.00;0.00;;;0.80;99.90;;;;;;5093346;28;20544;-62
2023/04/05 06:07:03;;;;;;;0.00;0.00;;;1.10;99.90;;;;;;5093325;28;20172;-62
2023/04/05 06:09:29;;;;;;;0.00;0.00;;;1.40;99.90;;;;;;5093068;28;20612;-62
2023/04/05 06:11:55;;;;;;;0.10;0.10;;;1.80;99.90;;;;;;5092874;28;20178;-63
2023/04/05 06:14:21;;;;;;;0.00;0.00;;;2.10;99.70;;;;;;5093151;28;20255;-63
2023/04/05 06:16:46;;;;;;;0.00;0.00;;;2.50;98.40;;;;;;5093046;28;20619;-62
2023/04/05 06:19:12;;;;;;;0.00;0.00;;;2.80;97.90;;;;;;5093201;28;20235;-62
2023/04/05 06:21:38;;;;;;;0.00;0.00;;;3.20;97.00;;;;;;5075249;28;20207;-62
2023/04/05 06:24:04;;;;;;;0.03;0.03;;;3.50;96.30;;;;;;5093554;28;20233;-62
2023/04/05 06:26:30;;;;;;;0.00;0.00;;;4.00;96.00;;;;;;5092854;28;20605;-62
2023/04/05 06:28:56;;;;;;;0.00;0.00;;;4.40;94.50;;;;;;5093298;28;20592;-62
2023/04/05 06:31:31;;;;;;;0.00;0.00;;;4.90;93.20;;;;;;5093110;28;20188;-61
2023/04/05 06:33:57;;;;;;;0.00;0.00;;;5.60;91.70;;;;;;5093074;28;20183;-62
2023/04/05 06:36:22;;;;;;;0.00;0.00;;;6.10;89.60;;;;;;5089713;28;20177;-62
2023/04/05 06:38:49;;;;;;;0.00;0.00;;;6.50;87.60;;;;;;5072768;28;20265;-62
2023/04/05 06:41:14;;;;;;;0.00;0.00;;;6.90;85.20;;;;;;5081951;28;20234;-62
2023/04/05 06:43:40;;;;;;;0.00;0.00;;;7.50;81.10;;;;;;5074296;28;20164;-63
2023/04/05 06:46:10;;;;;;;0.00;0.00;;;7.70;77.20;;;;;;5081498;28;20671;-62
2023/04/05 06:48:36;;;;;;;0.00;0.00;;;7.80;75.00;;;;;;5075311;28;20165;-62
2023/04/05 06:51:03;;;;;;;0.00;0.00;;;8.00;74.60;;;;;;5072616;28;20180;-61
2023/04/05 06:53:29;;;;;;;0.00;0.00;;;8.20;71.00;;;;;;5072632;28;20180;-63
2023/04/05 06:55:56;;;;;;;0.00;0.00;;;8.00;70.50;;;;;;5071920;28;20262;-61
2023/04/05 06:58:22;;;;;;;0.00;0.00;;;8.00;70.60;;;;;;5072560;28;20213;-61
2023/04/05 07:00:49;;;;;;;0.00;0.00;;;8.30;70.90;;;;;;5054151;28;20176;-61
2023/04/05 07:03:15;;;;;;;0.00;0.00;;;8.70;71.50;;;;;;5072536;28;20172;-61
2023/04/05 07:05:40;;;;;;;0.00;0.00;;;9.10;68.90;;;;;;5072144;28;20176;-61
2023/04/05 07:08:06;;;;;;;0.00;0.00;;;9.60;66.60;;;;;;5072391;28;20584;-62
2023/04/05 07:10:31;;;;;;;0.00;0.00;;;9.70;63.30;;;;;;5072211;28;20252;-62
2023/04/05 07:12:57;;;;;;;0.00;0.00;;;9.90;64.20;;;;;;5072325;28;20268;-62
2023/04/05 07:15:22;;;;;;;0.00;0.00;;;10.40;62.30;;;;;;5071974;28;20610;-62
2023/04/05 07:17:48;;;;;;;0.00;0.00;;;10.80;59.70;;;;;;5072064;28;20181;-61
2023/04/05 07:20:15;;;;;;;0.00;0.00;;;11.00;59.20;;;;;;5072172;28;20180;-62
2023/04/05 07:22:40;;;;;;;0.00;0.00;;;11.40;58.20;;;;;;5071946;28;20184;-63
2023/04/05 07:25:08;;;;;;;0.00;0.00;;;11.70;57.10;;;;;;5070663;28;20173;-61
2023/04/05 07:27:33;;;;;;;0.00;0.00;;;12.00;55.60;;;;;;5071732;28;20256;-62
2023/04/05 07:29:59;;;;;;;0.00;0.00;;;12.20;55.10;;;;;;5071794;28;20216;-61
2023/04/05 07:32:25;;;;;;;0.00;0.00;;;12.30;54.60;;;;;;5071805;28;20188;-61
2023/04/05 07:34:50;;;;;;;0.00;0.00;;;12.50;53.40;;;;;;5071498;28;20172;-61
2023/04/05 07:37:16;;;;;;;0.00;0.00;;;12.50;53.20;;;;;;5071904;28;20271;-61
2023/04/05 07:39:42;;;;;;;0.08;0.08;;;12.80;52.90;;;;;;5071365;28;20201;-62
2023/04/05 07:42:07;;;;;;;0.00;0.00;;;13.10;53.00;;;;;;5071588;28;20233;-61
2023/04/05 07:44:32;;;;;;;0.00;0.00;;;13.50;51.60;;;;;;5072157;28;20165;-61
2023/04/05 07:46:58;;;;;;;0.00;0.00;;;13.80;50.80;;;;;;5091740;28;20635;-61
2023/04/05 07:49:27;;;;;;;0.00;0.00;;;14.00;50.50;;;;;;5079931;28;20184;-61
2023/04/05 07:51:58;;;;;;;0.00;0.00;;;14.00;48.30;;;;;;5071318;28;20264;-61
2023/04/05 07:54:24;;;;;;;0.00;0.00;;;14.10;49.20;;;;;;5071489;28;20172;-61
2023/04/05 07:56:50;;;;;;;0.00;0.00;;;14.20;48.80;;;;;;5071122;28;20255;-62
2023/04/05 07:59:16;;;;;;;0.00;0.00;;;14.40;48.10;;;;;;5071345;28;20713;-63
2023/04/05 08:01:41;;;;;;;0.00;0.00;;;14.30;47.80;;;;;;5071174;28;20180;-61
2023/04/05 08:04:07;;;;;;;0.00;0.00;;;14.40;48.50;;;;;;5053343;28;20185;-60
2023/04/05 08:06:32;;;;;;;0.00;0.00;;;14.60;48.40;;;;;;5070575;28;20173;-61
2023/04/05 08:08:58;;;;;;;0.00;0.00;;;14.80;47.50;;;;;;5071245;28;20579;-61
2023/04/05 08:11:25;;;;;;;0.00;0.00;;;14.90;46.80;;;;;;5071186;28;20528;-63
2023/04/05 08:13:51;;;;;;;0.00;0.00;;;15.00;46.90;;;;;;5070858;28;20202;-61
2023/04/05 08:16:16;;;;;;;0.00;0.00;;;15.10;46.50;;;;;;5071136;28;20165;-62
2023/04/05 08:18:42;;;;;;;0.00;0.00;;;15.20;45.80;;;;;;5071116;28;20633;-62
2023/04/05 08:21:07;;;;;;;0.00;0.00;;;15.20;46.00;;;;;;5052900;28;20169;-62
2023/04/05 08:23:33;;;;;;;0.00;0.00;;;15.30;46.10;;;;;;5070981;28;20176;-62
2023/04/05 08:25:58;;;;;;;0.00;0.00;;;15.50;45.20;;;;;;5070933;28;20676;-62
2023/04/05 08:28:24;;;;;;;0.00;0.00;;;15.60;45.80;;;;;;5070889;28;20726;-62
2023/04/05 08:30:56;;;;;;;0.00;0.00;;;15.80;45.10;;;;;;5070675;28;20181;-62
2023/04/05 08:33:22;;;;;;;0.00;0.00;;;15.70;44.80;;;;;;5070862;28;20181;-62
2023/04/05 08:35:48;;;;;;;0.00;0.00;;;15.60;44.70;;;;;;5070684;28;20238;-62
2023/04/05 08:38:14;;;;;;;0.00;0.00;;;15.60;44.20;;;;;;5070876;28;20208;-62
2023/04/05 08:40:42;;;;;;;0.00;0.00;;;15.60;44.30;;;;;;5070707;28;20242;-63
2023/04/05 08:43:21;;;;;;;0.00;0.00;;;15.60;44.10;;;;;;5070810;28;20208;-63
2023/04/05 08:45:50;;;;;;;0.00;0.00;;;15.70;43.30;;;;;;5081490;28;20206;-60
2023/04/05 08:48:16;;;;;;;0.47;0.20;;;15.80;44.00;;;;;;5090139;28;20172;-60
2023/04/05 08:50:48;;;;;;;0.00;0.00;;;15.90;43.80;;;;;;5083517;28;20191;-60
2023/04/05 08:53:14;;;;;;;0.00;0.00;;;16.00;43.60;;;;;;5070906;28;20172;-62
2023/04/05 08:55:40;;;;;;;0.05;0.05;;;16.10;43.50;;;;;;5070554;28;20524;-62
2023/04/05 08:58:12;;;;;;;0.00;0.00;;;16.20;42.70;;;;;;5070594;28;20200;-61
2023/04/05 09:00:40;;;;;;;0.00;0.00;;;16.30;42.70;;;;;;5070584;28;20652;-61
2023/04/05 09:03:07;;;;;;;0.00;0.00;;;16.20;43.20;;;;;;5070603;28;20177;-62
2023/04/05 09:05:35;;;;;;;0.00;0.00;;;16.10;43.40;;;;;;5070515;28;20235;-62
2023/04/05 09:08:01;;;;;;;0.00;0.00;;;16.10;43.80;;;;;;5070545;28;20171;-62
2023/04/05 09:10:28;;;;;;;0.00;0.00;;;16.10;43.30;;;;;;5070448;28;20192;-62
2023/04/05 09:12:55;;;;;;;0.00;0.00;;;16.10;41.80;;;;;;5070287;28;20181;-62
2023/04/05 09:15:23;;;;;;;0.00;0.00;;;15.80;41.80;;;;;;5070469;28;20173;-61
2023/04/05 09:17:49;;;;;;;0.20;0.20;;;15.70;41.50;;;;;;5070867;28;20647;-62
2023/04/05 09:20:15;;;;;;;0.00;0.00;;;15.70;41.80;;;;;;5056428;28;20192;-61
2023/04/05 09:22:44;;;;;;;0.00;0.00;;;15.70;42.30;;;;;;5074074;28;20538;-62
2023/04/05 09:25:09;;;;;;;0.00;0.00;;;15.80;43.50;;;;;;5074088;28;20648;-62
2023/04/05 09:27:52;;;;;;;0.00;0.00;;;15.80;42.90;;;;;;5073807;28;20267;-62
2023/04/05 09:30:22;;;;;;;0.00;0.00;;;16.00;44.10;;;;;;5074109;28;20219;-61
2023/04/05 09:32:50;;;;;;;0.00;0.00;;;16.20;44.00;;;;;;5073799;28;20326;-63
2023/04/05 09:35:29;;;;;;;0.00;0.00;;;16.20;41.50;;;;;;5074166;28;20229;-61
2023/04/05 09:37:56;;;;;;;0.00;0.00;;;16.10;40.80;;;;;;5073940;28;20172;-63
2023/04/05 09:40:22;;;;;;;0.00;0.00;;;15.70;40.40;;;;;;5073960;28;20184;-62
2023/04/05 09:42:48;;;;;;;0.00;0.00;;;15.20;40.90;;;;;;5073675;28;20538;-62
2023/04/05 09:45:15;;;;;;;0.00;0.00;;;15.00;42.10;;;;;;5080201;28;20172;-62
2023/04/05 09:47:41;;;;;;;0.00;0.00;;;14.60;42.70;;;;;;5093991;28;20180;-62
2023/04/05 09:50:15;;;;;;;0.00;0.00;;;14.40;42.10;;;;;;5076351;28;20369;-62
2023/04/05 09:52:42;;;;;;;0.00;0.00;;;14.10;41.30;;;;;;5073716;28;20172;-62
2023/04/05 09:55:09;;;;;;;0.00;0.00;;;13.80;43.00;;;;;;5073668;28;20869;-63
2023/04/05 09:57:39;;;;;;;0.00;0.00;;;13.80;41.80;;;;;;5073567;28;20272;-62
2023/04/05 10:00:15;;;;;;;0.00;0.00;;;13.80;42.40;;;;;;5073625;28;20204;-62
2023/04/05 10:02:41;;;;;;;0.00;0.00;;;13.70;43.30;;;;;;5073393;28;20168;-62
2023/04/05 10:05:12;;;;;;;0.00;0.00;;;13.60;39.80;;;;;;5073599;28;20173;-63
2023/04/05 10:07:39;;;;;;;0.00;0.00;;;13.50;40.20;;;;;;5073394;28;20177;-63
2023/04/05 10:10:05;;;;;;;0.38;0.38;;;13.40;43.70;;;;;;5073389;28;20168;-63
2023/04/05 10:12:32;;;;;;;0.00;0.00;;;13.50;45.40;;;;;;5073173;28;20185;-62
2023/04/05 10:14:58;;;;;;;0.00;0.00;;;13.70;44.20;;;;;;5073093;28;20230;-62
2023/04/05 10:17:29;;;;;;;0.00;0.00;;;13.80;41.90;;;;;;5073202;28;20160;-62
2023/04/05 10:20:14;;;;;;;0.00;0.00;;;13.70;42.00;;;;;;5073197;28;20679;-62
2023/04/05 10:22:46;;;;;;;0.00;0.00;;;13.80;44.10;;;;;;5072924;28;20180;-63
2023/04/05 10:25:43;;;;;;;0.00;0.00;;;14.10;42.70;;;;;;5073114;28;20543;-62
2023/04/05 10:28:12;;;;;;;4.30;0.47;;;14.40;41.40;;;;;;5072770;28;20242;-63
2023/04/05 10:30:42;;;;;;;0.00;0.00;;;14.60;42.00;;;;;;5072315;28;20188;-62
2023/04/05 10:33:28;;;;;;;0.00;0.00;;;14.70;41.30;;;;;;5072931;28;20263;-63
2023/04/05 10:36:11;;;;;;;0.00;0.00;;;14.80;42.00;;;;;;5072808;28;20188;-62
2023/04/05 10:39:11;;;;;;;0.00;0.00;;;14.90;41.80;;;;;;5072701;28;20212;-63
2023/04/05 10:41:43;;;;;;;1.02;0.88;;;14.80;41.40;;;;;;5061752;28;20183;-63
2023/04/05 10:44:10;;;;;;;0.08;0.08;;;14.70;40.60;;;;;;5072797;28;20195;-62
2023/04/05 10:46:38;;;;;;;0.30;0.30;;;14.70;41.60;;;;;;5090263;28;20173;-62
2023/04/05 10:49:41;;;;;;;0.00;0.00;;;14.80;41.90;;;;;;5083858;28;20193;-63
2023/04/05 10:52:08;;;;;;;0.00;0.00;;;14.80;41.50;;;;;;5072718;28;20532;-63
2023/04/05 10:54:35;;;;;;;0.00;0.00;;;14.80;41.80;;;;;;5072455;28;20173;-63
2023/04/05 10:57:06;;;;;;;0.00;0.00;;;14.90;42.20;;;;;;5072593;28;20185;-63
2023/04/05 10:59:33;;;;;;;0.00;0.00;;;14.70;40.90;;;;;;5072281;28;20674;-63
2023/04/05 11:01:59;;;;;;;0.00;0.00;;;14.50;40.80;;;;;;5072494;28;20182;-62
2023/04/05 11:04:25;;;;;;;0.20;0.00;;;14.20;40.70;;;;;;5072106;28;20627;-62
2023/04/05 11:07:16;;;;;;;0.00;0.00;;;14.00;41.50;;;;;;5072034;28;20173;-62
2023/04/05 11:10:02;;;;;;;0.00;0.00;;;13.90;42.80;;;;;;5072077;28;20219;-62
2023/04/05 11:12:47;;;;;;;0.00;0.00;;;14.20;43.60;;;;;;5071623;28;20184;-62
2023/04/05 11:15:41;;;;;;;0.00;0.00;;;14.20;44.00;;;;;;5072036;28;20252;-62
2023/04/05 11:18:19;;;;;;;0.00;0.00;;;14.50;42.50;;;;;;5058383;28;20192;-62
2023/04/05 11:20:50;;;;;;;0.00;0.00;;;14.70;42.60;;;;;;5071535;28;20722;-62
2023/04/05 11:23:17;;;;;;;0.00;0.00;;;14.80;42.10;;;;;;5072011;28;20212;-62
2023/04/05 11:25:56;;;;;;;0.00;0.00;;;15.10;42.30;;;;;;5071812;28;20180;-63
2023/04/05 11:28:28;;;;;;;0.00;0.00;;;15.30;41.30;;;;;;5071705;28;20224;-62
2023/04/05 11:30:55;;;;;;;0.10;0.10;;;15.30;40.50;;;;;;5071882;28;20172;-62
2023/04/05 11:34:09;;;;;;;0.00;0.00;;;15.10;39.70;;;;;;5071847;28;20176;-63
2023/04/05 11:36:34;;;;;;;0.00;0.00;;;14.60;40.60;;;;;;5009725;28;20179;-62
2023/04/05 11:39:21;;;;;;;0.00;0.00;;;14.20;41.50;;;;;;5009591;28;20755;-62
2023/04/05 11:41:54;;;;;;;0.00;0.00;;;14.10;43.00;;;;;;5049974;28;20594;-62
2023/04/05 11:44:21;;;;;;;0.93;0.75;;;14.40;43.10;;;;;;5071604;28;20686;-62
2023/04/05 11:46:46;;;;;;;0.00;0.00;;;14.70;41.70;;;;;;5090608;28;20210;-62
2023/04/05 11:49:12;;;;;;;0.00;0.00;;;14.70;40.70;;;;;;5081660;28;20539;-62
2023/04/05 11:51:42;;;;;;;0.00;0.00;;;14.80;40.90;;;;;;5071390;28;20238;-62
2023/04/05 11:54:10;;;;;;;0.00;0.00;;;15.00;41.90;;;;;;5071400;28;20667;-62
2023/04/05 11:56:36;;;;;;;0.00;0.00;;;15.10;40.40;;;;;;5071324;28;20180;-62
2023/04/05 11:59:02;;;;;;;0.00;0.00;;;15.00;39.80;;;;;;5071278;28;20217;-61
2023/04/05 12:01:28;;;;;;;0.00;0.00;;;14.80;40.20;;;;;;5071192;28;20169;-61
2023/04/05 12:03:55;;;;;;;0.03;0.03;;;14.80;40.80;;;;;;5071329;28;20259;-62
2023/04/05 12:06:25;;;;;;;0.00;0.00;;;14.60;40.60;;;;;;5071382;28;20251;-62
2023/04/05 12:08:52;;;;;;;0.00;0.00;;;14.40;40.20;;;;;;5071154;28;20176;-62
2023/04/05 12:11:29;;;;;;;0.08;0.00;;;14.20;40.30;;;;;;5071071;28;20185;-62
2023/04/05 12:13:57;;;;;;;0.08;0.08;;;14.10;40.80;;;;;;5071034;28;20596;-62
2023/04/05 12:16:23;;;;;;;0.25;0.25;;;14.00;42.50;;;;;;5071193;28;20260;-62
2023/04/05 12:18:54;;;;;;;0.00;0.00;;;14.20;41.60;;;;;;5070881;28;20208;-61
2023/04/05 12:21:20;;;;;;;0.05;0.05;;;14.50;41.20;;;;;;5071016;28;20184;-62
2023/04/05 12:23:47;;;;;;;0.00;0.00;;;14.80;41.50;;;;;;5070965;28;20227;-62
2023/04/05 12:26:13;;;;;;;0.00;0.00;;;14.90;41.10;;;;;;5070888;28;20267;-61
2023/04/05 12:28:52;;;;;;;0.00;0.00;;;15.00;40.10;;;;;;5070958;28;20172;-61
2023/04/05 12:31:34;;;;;;;0.00;0.00;;;14.50;39.70;;;;;;5071020;28;20176;-62
2023/04/05 12:33:59;;;;;;;0.00;0.00;;;14.20;40.70;;;;;;5071059;28;20176;-61
2023/04/05 12:36:26;;;;;;;0.00;0.00;;;14.20;41.00;;;;;;5071054;28;20223;-62
2023/04/05 12:38:54;;;;;;;0.03;0.03;;;14.30;41.60;;;;;;5070803;28;20223;-62
2023/04/05 12:41:30;;;;;;;0.00;0.00;;;14.50;41.30;;;;;;5070861;28;20180;-61
2023/04/05 12:44:00;;;;;;;0.20;0.10;;;14.60;40.20;;;;;;5070843;28;20688;-61
2023/04/05 12:46:42;;;;;;;0.00;0.00;;;14.60;40.30;;;;;;5086981;28;20263;-62
2023/04/05 12:49:13;;;;;;;0.00;0.00;;;14.50;39.90;;;;;;5081556;28;20201;-61
2023/04/05 12:51:43;;;;;;;0.00;0.00;;;14.30;40.40;;;;;;5052639;28;20536;-62
2023/04/05 12:54:13;;;;;;;0.00;0.00;;;14.20;40.20;;;;;;5073793;28;20187;-62
2023/04/05 12:56:39;;;;;;;0.28;0.28;;;14.10;40.90;;;;;;5074620;28;20712;-61